createdAt,value
2022-10-07T00:01:06.433Z,11.10
2022-10-07T00:03:34.874Z,11.10
2022-10-07T00:06:07.095Z,11.10
2022-10-07T00:08:36.938Z,11.10
2022-10-07T00:11:08.989Z,11.10
2022-10-07T00:13:39.637Z,11.10
2022-10-07T00:16:09.595Z,11.10
2022-10-07T00:18:39.051Z,11.00
2022-10-07T00:21:08.873Z,11.00
2022-10-07T00:23:37.097Z,10.90
2022-10-07T00:26:09.287Z,10.80
2022-10-07T00:28:37.932Z,10.60
2022-10-07T00:31:07.927Z,10.50
2022-10-07T00:33:38.709Z,10.40
2022-10-07T00:36:09.016Z,10.40
2022-10-07T00:38:36.864Z,10.30
2022-10-07T00:41:06.484Z,10.20
2022-10-07T00:43:34.494Z,10.20
2022-10-07T00:46:08.230Z,10.10
2022-10-07T00:48:39.126Z,10.10
2022-10-07T00:51:09.355Z,10.00
2022-10-07T00:53:39.858Z,10.00
2022-10-07T00:56:09.705Z,9.90
2022-10-07T00:58:40.564Z,10.00
2022-10-07T01:01:09.370Z,10.00
2022-10-07T01:03:37.980Z,10.00
2022-10-07T01:06:06.621Z,9.90
2022-10-07T01:08:35.197Z,9.90
2022-10-07T01:11:14.996Z,9.80
2022-10-07T01:16:29.528Z,9.70
2022-10-07T01:19:05.975Z,9.70
2022-10-07T01:21:40.634Z,9.70
2022-10-07T01:24:24.370Z,9.70
2022-10-07T01:27:01.019Z,9.60
2022-10-07T01:29:31.809Z,9.60
2022-10-07T01:32:04.843Z,9.50
2022-10-07T01:34:34.831Z,9.50
2022-10-07T01:37:05.263Z,9.40
2022-10-07T01:39:38.506Z,9.40
2022-10-07T01:42:08.189Z,9.30
2022-10-07T01:44:36.961Z,9.30
2022-10-07T01:47:04.852Z,9.30
2022-10-07T01:49:32.686Z,9.20
2022-10-07T01:52:17.833Z,9.20
2022-10-07T01:55:01.318Z,9.20
2022-10-07T01:57:40.941Z,9.20
2022-10-07T02:00:11.034Z,9.30
2022-10-07T02:02:54.109Z,9.20
2022-10-07T02:05:33.267Z,9.30
2022-10-07T02:08:16.315Z,9.30
2022-10-07T02:11:01.344Z,9.30
2022-10-07T02:13:37.087Z,9.30
2022-10-07T02:16:10.505Z,9.30
2022-10-07T02:18:43.806Z,9.40
2022-10-07T02:21:12.453Z,9.40
2022-10-07T02:23:42.644Z,9.40
2022-10-07T02:26:13.236Z,9.40
2022-10-07T02:28:44.575Z,9.50
2022-10-07T02:31:18.002Z,9.40
2022-10-07T02:33:48.042Z,9.30
2022-10-07T02:36:20.027Z,9.40
2022-10-07T02:38:47.973Z,9.30
2022-10-07T02:41:31.428Z,9.40
2022-10-07T02:44:16.775Z,9.20
2022-10-07T02:46:48.748Z,9.40
2022-10-07T02:49:18.774Z,9.30
2022-10-07T02:51:50.566Z,9.40
2022-10-07T02:54:23.235Z,9.40
2022-10-07T02:56:51.898Z,9.30
2022-10-07T02:59:22.925Z,9.30
2022-10-07T03:04:23.601Z,9.20
2022-10-07T03:06:52.157Z,9.20
2022-10-07T03:09:20.452Z,9.10
2022-10-07T03:11:49.257Z,9.10
2022-10-07T03:14:17.188Z,9.10
2022-10-07T03:16:46.513Z,9.10
2022-10-07T03:19:14.309Z,9.10
2022-10-07T03:21:48.645Z,9.10
2022-10-07T03:24:18.523Z,9.10
2022-10-07T03:26:48.358Z,9.10
2022-10-07T03:29:16.780Z,9.10
2022-10-07T03:31:46.761Z,9.20
2022-10-07T03:34:14.548Z,9.10
2022-10-07T03:36:45.426Z,9.00
2022-10-07T03:39:13.702Z,9.00
2022-10-07T03:41:42.793Z,8.90
2022-10-07T03:44:11.452Z,8.90
2022-10-07T03:46:39.286Z,8.90
2022-10-07T03:49:08.499Z,8.90
2022-10-07T03:51:36.746Z,8.90
2022-10-07T03:54:07.250Z,8.80
2022-10-07T03:56:35.630Z,8.80
2022-10-07T03:59:03.660Z,8.70
2022-10-07T04:01:32.907Z,8.70
2022-10-07T04:04:01.825Z,8.60
2022-10-07T04:06:35.412Z,8.60
2022-10-07T04:09:07.039Z,8.50
2022-10-07T04:11:35.868Z,8.50
2022-10-07T04:14:03.901Z,8.50
2022-10-07T04:16:37.807Z,8.50
2022-10-07T04:19:07.795Z,8.50
2022-10-07T04:21:36.898Z,8.50
2022-10-07T04:24:05.466Z,8.50
2022-10-07T04:26:33.344Z,8.50
2022-10-07T04:29:01.106Z,8.50
2022-10-07T04:31:29.346Z,8.50
2022-10-07T04:34:01.739Z,8.50
2022-10-07T04:36:35.662Z,8.50
2022-10-07T04:39:06.567Z,8.50
2022-10-07T04:41:42.894Z,8.40
2022-10-07T04:44:16.042Z,8.40
2022-10-07T04:46:51.888Z,8.40
2022-10-07T04:49:19.850Z,8.40
2022-10-07T04:51:49.768Z,8.30
2022-10-07T04:54:17.885Z,8.30
2022-10-07T04:56:50.275Z,8.20
2022-10-07T04:59:23.650Z,8.20
2022-10-07T05:01:52.860Z,8.20
2022-10-07T05:04:20.663Z,8.20
2022-10-07T05:06:50.047Z,8.20
2022-10-07T05:09:17.853Z,8.20
2022-10-07T05:11:48.170Z,8.10
2022-10-07T05:14:21.199Z,8.20
2022-10-07T05:16:49.682Z,8.10
2022-10-07T05:19:17.942Z,8.10
2022-10-07T05:21:46.220Z,8.10
2022-10-07T05:24:16.519Z,8.00
2022-10-07T05:26:44.505Z,8.00
2022-10-07T05:29:12.587Z,8.00
2022-10-07T05:31:46.802Z,8.00
2022-10-07T05:34:17.661Z,8.00
2022-10-07T05:36:45.419Z,8.00
2022-10-07T05:39:14.502Z,8.00
2022-10-07T05:41:51.441Z,8.00
2022-10-07T05:44:23.768Z,8.00
2022-10-07T05:46:53.386Z,8.00
2022-10-07T05:49:22.399Z,8.00
2022-10-07T05:51:51.274Z,8.00
2022-10-07T05:54:20.269Z,8.10
2022-10-07T05:56:48.034Z,8.10
2022-10-07T05:59:20.430Z,8.10
2022-10-07T06:01:48.991Z,8.20
2022-10-07T06:04:20.964Z,8.20
2022-10-07T06:06:50.408Z,8.20
2022-10-07T06:09:36.260Z,8.20
2022-10-07T06:12:28.470Z,8.20
2022-10-07T06:14:59.326Z,8.30
2022-10-07T06:19:58.521Z,8.40
2022-10-07T06:22:26.802Z,8.50
2022-10-07T06:24:58.739Z,8.50
2022-10-07T06:27:26.757Z,8.50
2022-10-07T06:29:55.422Z,8.60
2022-10-07T06:32:24.673Z,8.60
2022-10-07T06:34:52.553Z,8.70
2022-10-07T06:37:22.411Z,8.70
2022-10-07T06:39:50.186Z,8.80
2022-10-07T06:42:18.132Z,8.80
2022-10-07T06:44:58.378Z,8.90
2022-10-07T06:47:28.170Z,8.90
2022-10-07T06:49:56.541Z,9.00
2022-10-07T06:52:24.372Z,9.10
2022-10-07T06:54:52.708Z,9.20
2022-10-07T06:57:44.209Z,9.20
2022-10-07T07:00:10.442Z,9.30
2022-10-07T07:02:39.979Z,9.30
2022-10-07T07:05:08.948Z,9.40
2022-10-07T07:07:38.229Z,9.50
2022-10-07T07:10:07.155Z,9.50
2022-10-07T07:12:37.420Z,9.60
2022-10-07T07:15:06.073Z,9.60
2022-10-07T07:17:34.114Z,9.60
2022-10-07T07:20:03.291Z,9.70
2022-10-07T07:22:31.590Z,9.80
2022-10-07T07:24:59.634Z,9.80
2022-10-07T07:27:27.395Z,9.90
2022-10-07T07:29:55.165Z,10.00
2022-10-07T07:32:22.958Z,10.00
2022-10-07T07:34:50.746Z,10.00
2022-10-07T07:37:24.659Z,10.20
2022-10-07T07:39:55.272Z,10.30
2022-10-07T07:42:23.105Z,10.30
2022-10-07T07:44:51.528Z,10.40
2022-10-07T07:47:21.180Z,10.50
2022-10-07T07:49:50.756Z,10.60
2022-10-07T07:52:26.140Z,10.70
2022-10-07T07:54:58.188Z,10.70
2022-10-07T07:57:27.174Z,10.80
2022-10-07T07:59:55.763Z,11.00
2022-10-07T08:02:24.380Z,11.10
2022-10-07T08:04:53.875Z,11.10
2022-10-07T08:07:22.249Z,11.30
2022-10-07T08:09:52.536Z,11.30
2022-10-07T08:12:21.075Z,11.40
2022-10-07T08:14:49.732Z,11.40
2022-10-07T08:17:18.116Z,11.50
2022-10-07T08:19:46.573Z,11.60
2022-10-07T08:22:17.466Z,11.70
2022-10-07T08:24:47.178Z,11.80
2022-10-07T08:27:17.921Z,11.90
2022-10-07T08:29:45.782Z,12.00
2022-10-07T08:32:13.568Z,12.10
2022-10-07T08:34:41.353Z,12.30
2022-10-07T08:37:09.198Z,12.40
2022-10-07T08:39:37.006Z,12.40
2022-10-07T08:42:13.355Z,12.50
2022-10-07T08:44:45.329Z,12.60
2022-10-07T08:47:19.030Z,12.60
2022-10-07T08:50:00.546Z,12.70
2022-10-07T08:52:34.827Z,12.80
2022-10-07T08:55:03.666Z,12.80
2022-10-07T08:57:47.602Z,12.90
2022-10-07T09:00:21.070Z,13.00
2022-10-07T09:03:09.092Z,13.00
2022-10-07T09:05:42.380Z,13.10
2022-10-07T09:08:18.770Z,13.20
2022-10-07T09:10:50.571Z,13.30
2022-10-07T09:13:21.565Z,13.30
2022-10-07T09:16:08.221Z,13.50
2022-10-07T09:18:40.089Z,13.50
2022-10-07T09:21:13.236Z,13.60
2022-10-07T09:23:41.160Z,13.70
2022-10-07T09:26:12.013Z,13.90
2022-10-07T09:28:40.126Z,13.90
2022-10-07T09:31:13.593Z,14.00
2022-10-07T09:33:45.607Z,14.10
2022-10-07T09:36:17.814Z,14.20
2022-10-07T09:38:47.669Z,14.20
2022-10-07T09:41:20.420Z,14.30
2022-10-07T09:44:00.609Z,14.40
2022-10-07T09:46:37.303Z,14.50
2022-10-07T09:49:07.293Z,14.60
2022-10-07T09:51:35.433Z,14.70
2022-10-07T09:54:05.105Z,15.00
2022-10-07T09:56:41.708Z,15.20
2022-10-07T09:59:20.919Z,15.20
2022-10-07T10:01:55.221Z,15.30
2022-10-07T10:04:29.033Z,15.40
2022-10-07T10:07:01.967Z,15.40
2022-10-07T10:09:29.854Z,15.40
2022-10-07T10:12:11.948Z,15.60
2022-10-07T10:14:47.660Z,15.70
2022-10-07T10:17:30.323Z,15.70
2022-10-07T10:20:31.697Z,15.70
2022-10-07T10:23:00.972Z,15.80
2022-10-07T10:25:58.985Z,15.90
2022-10-07T10:31:10.674Z,16.10
2022-10-07T10:33:47.023Z,16.20
2022-10-07T10:36:20.299Z,16.20
2022-10-07T10:38:52.561Z,16.40
2022-10-07T10:41:27.709Z,16.40
2022-10-07T10:44:14.297Z,16.50
2022-10-07T10:46:54.798Z,16.60
2022-10-07T10:49:30.427Z,16.70
2022-10-07T10:52:25.873Z,16.70
2022-10-07T10:55:19.188Z,16.70
2022-10-07T10:58:00.754Z,16.80
2022-10-07T11:00:35.485Z,16.80
2022-10-07T11:03:24.657Z,16.90
2022-10-07T11:05:55.667Z,16.90
2022-10-07T11:08:27.713Z,17.10
2022-10-07T11:10:59.216Z,17.20
2022-10-07T11:13:35.242Z,17.20
2022-10-07T11:16:09.761Z,17.30
2022-10-07T11:18:41.817Z,17.40
2022-10-07T11:21:15.925Z,17.40
2022-10-07T11:23:51.481Z,17.20
2022-10-07T11:26:27.659Z,17.20
2022-10-07T11:29:00.377Z,17.10
2022-10-07T11:31:33.633Z,17.10
2022-10-07T11:34:13.032Z,17.00
2022-10-07T11:36:48.105Z,17.00
2022-10-07T11:39:16.455Z,17.00
2022-10-07T11:41:51.537Z,17.10
2022-10-07T11:44:23.666Z,17.10
2022-10-07T11:46:52.589Z,17.10
2022-10-07T11:49:24.523Z,17.00
2022-10-07T11:52:02.097Z,17.00
2022-10-07T11:54:40.180Z,17.10
2022-10-07T11:57:18.270Z,16.90
2022-10-07T11:59:48.681Z,17.00
2022-10-07T12:02:46.167Z,17.00
2022-10-07T12:05:57.512Z,17.20
2022-10-07T12:08:32.627Z,17.30
2022-10-07T12:11:42.425Z,17.20
2022-10-07T12:14:49.933Z,17.40
2022-10-07T12:17:24.133Z,17.40
2022-10-07T12:20:29.455Z,17.50
2022-10-07T12:23:49.058Z,17.70
2022-10-07T12:26:47.909Z,17.80
2022-10-07T12:29:29.911Z,17.70
2022-10-07T12:31:57.821Z,17.60
2022-10-07T12:34:38.279Z,17.60
2022-10-07T12:37:42.967Z,17.60
2022-10-07T12:40:17.537Z,17.50
2022-10-07T12:42:54.461Z,17.40
2022-10-07T12:45:25.231Z,17.10
2022-10-07T12:47:58.909Z,17.10
2022-10-07T12:50:27.668Z,17.30
2022-10-07T12:52:58.721Z,17.30
2022-10-07T12:55:31.475Z,17.20
2022-10-07T12:58:22.494Z,17.20
2022-10-07T13:01:04.781Z,17.00
2022-10-07T13:04:20.438Z,17.10
2022-10-07T13:07:26.110Z,17.10
2022-10-07T13:10:27.292Z,17.30
2022-10-07T13:12:56.626Z,17.40
2022-10-07T13:15:33.414Z,17.50
2022-10-07T13:18:10.808Z,17.60
2022-10-07T13:20:52.036Z,17.80
2022-10-07T13:23:26.842Z,17.90
2022-10-07T13:25:58.087Z,17.80
2022-10-07T13:28:30.200Z,17.70
2022-10-07T13:31:13.909Z,17.70
2022-10-07T13:33:43.141Z,17.80
2022-10-07T13:36:20.875Z,17.70
2022-10-07T13:38:50.736Z,17.60
2022-10-07T13:41:23.737Z,17.50
2022-10-07T13:43:54.940Z,17.60
2022-10-07T13:46:26.375Z,17.60
2022-10-07T13:48:56.318Z,17.40
2022-10-07T13:51:34.491Z,17.40
2022-10-07T13:54:05.333Z,17.50
2022-10-07T13:56:35.985Z,17.60
2022-10-07T13:59:06.654Z,17.60
2022-10-07T14:01:40.586Z,17.60
2022-10-07T14:04:21.559Z,17.60
2022-10-07T14:06:53.570Z,17.50
2022-10-07T14:09:26.270Z,17.50
2022-10-07T14:11:57.716Z,17.50
2022-10-07T14:14:28.162Z,17.60
2022-10-07T14:17:00.182Z,17.60
2022-10-07T14:19:33.355Z,17.50
2022-10-07T14:22:03.497Z,17.50
2022-10-07T14:24:32.391Z,17.50
2022-10-07T14:27:00.426Z,17.50
2022-10-07T14:29:38.723Z,17.40
2022-10-07T14:32:36.478Z,17.30
2022-10-07T14:35:20.255Z,17.20
2022-10-07T14:37:48.247Z,17.10
2022-10-07T14:40:22.433Z,17.10
2022-10-07T14:42:53.484Z,17.10
2022-10-07T14:45:22.385Z,17.10
2022-10-07T14:47:51.568Z,17.00
2022-10-07T14:50:20.254Z,17.00
2022-10-07T14:52:52.128Z,16.90
2022-10-07T14:55:23.521Z,16.80
2022-10-07T14:57:51.479Z,16.90
2022-10-07T15:00:22.019Z,16.90
2022-10-07T15:02:52.974Z,16.90
2022-10-07T15:05:22.542Z,17.00
2022-10-07T15:07:51.069Z,17.00
2022-10-07T15:10:21.082Z,17.00
2022-10-07T15:12:49.388Z,16.80
2022-10-07T15:15:18.198Z,16.80
2022-10-07T15:17:47.902Z,16.70
2022-10-07T15:20:17.740Z,16.60
2022-10-07T15:22:46.301Z,16.60
2022-10-07T15:25:16.399Z,16.60
2022-10-07T15:27:44.297Z,16.50
2022-10-07T15:30:13.646Z,16.60
2022-10-07T15:32:41.550Z,16.50
2022-10-07T15:35:09.965Z,16.40
2022-10-07T15:37:39.529Z,16.40
2022-10-07T15:40:08.878Z,16.30
2022-10-07T15:42:36.943Z,16.30
2022-10-07T15:45:05.126Z,16.30
2022-10-07T15:47:34.301Z,16.30
2022-10-07T15:50:02.094Z,16.20
2022-10-07T15:52:30.285Z,16.20
2022-10-07T15:55:03.706Z,16.20
2022-10-07T15:57:34.586Z,16.10
2022-10-07T16:00:02.640Z,16.00
2022-10-07T16:02:39.740Z,16.00
2022-10-07T16:05:09.427Z,15.90
2022-10-07T16:07:37.462Z,15.90
2022-10-07T16:10:12.713Z,15.80
2022-10-07T16:12:41.120Z,15.80
2022-10-07T16:15:09.386Z,15.70
2022-10-07T16:17:37.193Z,15.70
2022-10-07T16:20:11.352Z,15.70
2022-10-07T16:22:39.669Z,15.70
2022-10-07T16:25:09.363Z,15.60
2022-10-07T16:27:51.237Z,15.60
2022-10-07T16:30:36.437Z,15.60
2022-10-07T16:33:04.697Z,15.50
2022-10-07T16:35:32.652Z,15.40
2022-10-07T16:38:01.114Z,15.40
2022-10-07T16:40:30.230Z,15.40
2022-10-07T16:42:59.250Z,15.30
2022-10-07T16:45:27.276Z,15.20
2022-10-07T16:47:57.095Z,15.20
2022-10-07T16:50:25.032Z,15.20
2022-10-07T16:52:52.980Z,15.20
2022-10-07T16:55:20.791Z,15.20
2022-10-07T16:57:50.345Z,15.20
2022-10-07T17:00:18.623Z,15.20
2022-10-07T17:02:46.516Z,15.10
2022-10-07T17:05:14.543Z,15.10
2022-10-07T17:07:42.880Z,15.10
2022-10-07T17:10:11.256Z,15.00
2022-10-07T17:12:39.008Z,14.90
2022-10-07T17:15:09.224Z,14.90
2022-10-07T17:17:39.746Z,14.80
2022-10-07T17:20:10.117Z,14.80
2022-10-07T17:22:37.913Z,14.70
2022-10-07T17:25:07.785Z,14.70
2022-10-07T17:27:35.708Z,14.70
2022-10-07T17:30:03.764Z,14.50
2022-10-07T17:32:35.526Z,14.40
2022-10-07T17:35:03.577Z,14.20
2022-10-07T17:37:31.461Z,14.10
2022-10-07T17:39:59.230Z,14.10
2022-10-07T17:42:26.982Z,14.00
2022-10-07T17:44:55.031Z,13.90
2022-10-07T17:47:22.914Z,13.90
2022-10-07T17:49:53.427Z,13.80
2022-10-07T17:52:26.536Z,13.80
2022-10-07T17:54:56.546Z,13.70
2022-10-07T17:57:24.865Z,13.60
2022-10-07T17:59:52.910Z,13.60
2022-10-07T18:02:21.018Z,13.60
2022-10-07T18:04:50.679Z,13.60
2022-10-07T18:07:20.471Z,13.60
2022-10-07T18:09:48.314Z,13.60
2022-10-07T18:12:33.616Z,13.60
2022-10-07T18:15:19.187Z,13.60
2022-10-07T18:17:47.772Z,13.70
2022-10-07T18:20:16.449Z,13.70
2022-10-07T18:22:45.554Z,13.70
2022-10-07T18:25:13.426Z,13.60
2022-10-07T18:27:41.658Z,13.60
2022-10-07T18:30:10.576Z,13.50
2022-10-07T18:32:38.391Z,13.50
2022-10-07T18:35:08.217Z,13.50
2022-10-07T18:37:36.114Z,13.40
2022-10-07T18:40:06.163Z,13.40
2022-10-07T18:42:37.223Z,13.40
2022-10-07T18:45:05.548Z,13.40
2022-10-07T18:47:33.292Z,13.40
2022-10-07T18:50:01.097Z,13.40
2022-10-07T18:52:28.866Z,13.40
2022-10-07T18:54:56.642Z,13.30
2022-10-07T18:57:25.829Z,13.40
2022-10-07T18:59:53.608Z,13.30
2022-10-07T19:02:21.415Z,13.40
2022-10-07T19:04:49.259Z,13.50
2022-10-07T19:07:17.007Z,13.50
2022-10-07T19:09:44.794Z,13.50
2022-10-07T19:12:26.556Z,13.50
2022-10-07T19:14:55.700Z,13.50
2022-10-07T19:17:24.126Z,13.60
2022-10-07T19:19:51.957Z,13.70
2022-10-07T19:22:19.814Z,13.80
2022-10-07T19:25:05.029Z,13.80
2022-10-07T19:27:32.798Z,13.80
2022-10-07T19:30:02.139Z,13.70
2022-10-07T19:32:30.022Z,13.70
2022-10-07T19:34:58.125Z,13.70
2022-10-07T19:37:25.922Z,13.60
2022-10-07T19:39:53.673Z,13.60
2022-10-07T19:42:21.526Z,13.60
2022-10-07T19:44:49.327Z,13.60
2022-10-07T19:47:18.642Z,13.60
2022-10-07T19:49:46.527Z,13.60
2022-10-07T19:52:14.621Z,13.70
2022-10-07T19:54:45.693Z,13.70
2022-10-07T19:57:13.457Z,13.60
2022-10-07T19:59:41.238Z,13.70
2022-10-07T20:02:11.306Z,13.60
2022-10-07T20:04:41.367Z,13.60
2022-10-07T20:07:09.376Z,13.60
2022-10-07T20:09:37.223Z,13.60
2022-10-07T20:12:05.291Z,13.60
2022-10-07T20:14:35.302Z,13.60
2022-10-07T20:17:03.252Z,13.60
2022-10-07T20:19:31.128Z,13.60
2022-10-07T20:22:01.816Z,13.60
2022-10-07T20:24:29.706Z,13.60
2022-10-07T20:26:57.521Z,13.60
2022-10-07T20:29:25.692Z,13.50
2022-10-07T20:31:53.508Z,13.50
2022-10-07T20:34:21.405Z,13.50
2022-10-07T20:36:50.392Z,13.50
2022-10-07T20:39:38.778Z,13.50
2022-10-07T20:42:22.481Z,13.50
2022-10-07T20:44:51.373Z,13.50
2022-10-07T20:47:20.671Z,13.50
2022-10-07T20:49:50.699Z,13.40
2022-10-07T20:52:21.062Z,13.40
2022-10-07T20:54:50.728Z,13.40
2022-10-07T20:57:21.307Z,13.40
2022-10-07T20:59:49.251Z,13.40
2022-10-07T21:02:19.413Z,13.40
2022-10-07T21:04:48.081Z,13.40
2022-10-07T21:07:17.522Z,13.40
2022-10-07T21:09:46.075Z,13.40
2022-10-07T21:12:16.929Z,13.40
2022-10-07T21:14:46.946Z,13.40
2022-10-07T21:17:15.141Z,13.50
2022-10-07T21:19:42.916Z,13.50
2022-10-07T21:22:10.916Z,13.50
2022-10-07T21:24:38.774Z,13.50
2022-10-07T21:27:07.945Z,13.50
2022-10-07T21:29:40.659Z,13.50
2022-10-07T21:32:09.231Z,13.50
2022-10-07T21:34:37.344Z,13.50
2022-10-07T21:37:05.503Z,13.50
2022-10-07T21:39:33.301Z,13.50
2022-10-07T21:42:01.735Z,13.50
2022-10-07T21:44:32.166Z,13.50
2022-10-07T21:47:01.282Z,13.50
2022-10-07T21:49:29.203Z,13.40
2022-10-07T21:51:56.983Z,13.30
2022-10-07T21:54:24.752Z,13.30
2022-10-07T21:56:52.499Z,13.30
2022-10-07T21:59:20.730Z,13.30
2022-10-07T22:01:48.576Z,13.20
2022-10-07T22:04:19.290Z,13.20
2022-10-07T22:07:04.958Z,13.20
2022-10-07T22:09:33.321Z,13.20
2022-10-07T22:12:01.109Z,13.10
2022-10-07T22:14:29.039Z,13.10
2022-10-07T22:16:56.854Z,13.10
2022-10-07T22:19:26.007Z,13.10
2022-10-07T22:21:53.755Z,13.10
2022-10-07T22:24:21.674Z,13.10
2022-10-07T22:26:51.118Z,13.20
2022-10-07T22:29:20.645Z,13.20
2022-10-07T22:31:48.401Z,13.20
2022-10-07T22:34:30.201Z,13.30
2022-10-07T22:36:59.369Z,13.30
2022-10-07T22:39:28.509Z,13.30
2022-10-07T22:41:57.150Z,13.30
2022-10-07T22:44:28.586Z,13.30
2022-10-07T22:46:56.479Z,13.30
2022-10-07T22:49:29.319Z,13.30
2022-10-07T22:52:00.238Z,13.40
2022-10-07T22:54:28.317Z,13.40
2022-10-07T22:56:56.164Z,13.40
2022-10-07T22:59:23.931Z,13.40
2022-10-07T23:01:51.714Z,13.40
2022-10-07T23:04:20.360Z,13.40
2022-10-07T23:06:48.400Z,13.50
2022-10-07T23:09:17.536Z,13.50
2022-10-07T23:11:45.708Z,13.50
2022-10-07T23:14:13.537Z,13.60
2022-10-07T23:16:41.807Z,13.60
2022-10-07T23:19:10.404Z,13.60
2022-10-07T23:21:38.195Z,13.60
2022-10-07T23:24:08.036Z,13.60
2022-10-07T23:26:38.315Z,13.60
2022-10-07T23:29:07.447Z,13.50
2022-10-07T23:31:35.490Z,13.50
2022-10-07T23:34:03.775Z,13.50
2022-10-07T23:36:32.176Z,13.50
2022-10-07T23:39:01.020Z,13.50
2022-10-07T23:41:31.061Z,13.50
2022-10-07T23:44:01.790Z,13.50
2022-10-07T23:46:32.958Z,13.40
2022-10-07T23:49:01.469Z,13.40
2022-10-07T23:51:32.101Z,13.40
2022-10-07T23:54:01.608Z,13.30
2022-10-07T23:56:29.910Z,13.30
2022-10-07T23:58:57.769Z,13.30
